createdAt,value
2019-05-30T00:06:17.444Z,97881.47
2019-05-30T00:16:22.611Z,97891.41
2019-05-30T00:26:27.181Z,97900.68
2019-05-30T00:36:32.108Z,97893.91
2019-05-30T00:46:37.035Z,97894.16
2019-05-30T00:56:41.916Z,97896.39
2019-05-30T01:06:46.652Z,97902.27
2019-05-30T01:16:51.144Z,97908.88
2019-05-30T01:26:57.065Z,97905.87
2019-05-30T01:37:03.695Z,97910.80
2019-05-30T01:47:10.133Z,97898.55
2019-05-30T01:57:15.324Z,97906.40
2019-05-30T02:07:19.756Z,97915.57
2019-05-30T02:17:24.213Z,97911.46
2019-05-30T02:27:28.952Z,97904.37
2019-05-30T02:37:33.720Z,97906.91
2019-05-30T02:47:38.213Z,97907.48
2019-05-30T02:57:42.751Z,97918.22
2019-05-30T03:07:47.161Z,97918.02
2019-05-30T03:17:51.888Z,97936.23
2019-05-30T03:27:56.951Z,97937.93
2019-05-30T03:38:03.174Z,97946.72
2019-05-30T03:48:12.254Z,97948.64
2019-05-30T03:58:20.354Z,97955.94
2019-05-30T04:08:29.223Z,97967.04
2019-05-30T04:18:34.172Z,97969.57
2019-05-30T04:28:38.874Z,97975.75
2019-05-30T04:38:43.317Z,97988.78
2019-05-30T04:48:47.797Z,98000.06
2019-05-30T04:58:56.176Z,98004.53
2019-05-30T05:09:01.970Z,98017.36
2019-05-30T05:19:07.888Z,98024.85
2019-05-30T05:29:13.998Z,98035.54
2019-05-30T05:39:20.714Z,98041.14
2019-05-30T05:49:25.844Z,98052.92
2019-05-30T05:59:30.283Z,98056.33
2019-05-30T06:09:35.852Z,98072.50
2019-05-30T06:19:46.282Z,98082.50
2019-05-30T06:29:46.871Z,98084.99
2019-05-30T06:39:51.397Z,98086.22
2019-05-30T06:49:55.961Z,98092.41
2019-05-30T07:00:02.023Z,98098.94
2019-05-30T07:10:07.126Z,98114.73
2019-05-30T07:20:12.405Z,98117.25
2019-05-30T07:30:18.399Z,98109.47
2019-05-30T07:40:24.514Z,98114.52
2019-05-30T07:50:30.939Z,98114.41
2019-05-30T08:00:37.541Z,98113.51
2019-05-30T08:10:43.278Z,98118.95
2019-05-30T08:20:48.039Z,98120.98
2019-05-30T08:30:56.703Z,98128.53
2019-05-30T08:40:59.148Z,98131.14
2019-05-30T08:51:03.876Z,98142.23
2019-05-30T09:01:08.755Z,98135.07
2019-05-30T09:11:13.617Z,98145.41
2019-05-30T09:21:18.308Z,98146.02
2019-05-30T09:31:22.748Z,98139.93
2019-05-30T09:41:27.447Z,98151.92
2019-05-30T09:51:32.073Z,98149.34
2019-05-30T10:01:36.963Z,98153.95
2019-05-30T10:11:42.787Z,98138.81
2019-05-30T10:21:49.062Z,98138.34
2019-05-30T10:31:53.376Z,98134.97
2019-05-30T10:41:58.175Z,98120.42
2019-05-30T10:52:02.892Z,98118.21
2019-05-30T11:02:07.609Z,98134.97
2019-05-30T11:12:11.924Z,98112.45
2019-05-30T11:22:16.734Z,98107.48
2019-05-30T11:32:21.069Z,98099.08
2019-05-30T11:42:26.770Z,98095.66
2019-05-30T11:52:31.380Z,98084.81
2019-05-30T12:02:35.706Z,98071.34
2019-05-30T12:12:42.647Z,98066.23
2019-05-30T12:22:47.306Z,98065.71
2019-05-30T12:32:52.423Z,98063.42
2019-05-30T12:43:00.739Z,98048.89
2019-05-30T12:53:05.917Z,98045.60
2019-05-30T13:03:10.799Z,98051.47
2019-05-30T13:13:15.252Z,98051.91
2019-05-30T13:23:19.906Z,98044.50
2019-05-30T13:33:24.282Z,98040.19
2019-05-30T13:43:28.624Z,98039.56
2019-05-30T13:53:33.665Z,98027.61
2019-05-30T14:03:38.006Z,98022.03
2019-05-30T14:13:42.411Z,98022.71
2019-05-30T14:23:46.785Z,98011.84
2019-05-30T14:33:51.466Z,98018.92
2019-05-30T14:43:57.247Z,98005.92
2019-05-30T14:54:01.813Z,98020.18
2019-05-30T15:04:07.124Z,98018.31
2019-05-30T15:14:12.838Z,98020.75
2019-05-30T15:24:17.698Z,98014.41
2019-05-30T15:34:22.301Z,98005.58
2019-05-30T15:44:27.067Z,98004.34
2019-05-30T15:54:32.365Z,98006.16
2019-05-30T16:04:36.689Z,97998.21
2019-05-30T16:14:41.174Z,97992.36
2019-05-30T16:24:45.838Z,97989.84
2019-05-30T16:34:52.108Z,97982.31
2019-05-30T16:44:56.800Z,97979.91
2019-05-30T16:55:02.151Z,97979.86
2019-05-30T17:05:07.878Z,97980.37
2019-05-30T17:15:13.628Z,97987.21
2019-05-30T17:25:19.106Z,97991.02
2019-05-30T17:35:24.492Z,97990.51
2019-05-30T17:45:29.497Z,98000.27
2019-05-30T17:55:34.398Z,98004.72
2019-05-30T18:05:39.229Z,98009.23
2019-05-30T18:15:44.038Z,98009.80
2019-05-30T18:25:48.668Z,98018.39
2019-05-30T18:35:54.085Z,98032.70
2019-05-30T18:46:01.415Z,98036.98
2019-05-30T18:56:07.754Z,98037.91
2019-05-30T19:06:19.864Z,98046.14
2019-05-30T19:16:26.230Z,98055.29
2019-05-30T19:26:32.437Z,98061.20
2019-05-30T19:36:37.968Z,98076.80
2019-05-30T19:46:42.791Z,98074.47
2019-05-30T19:56:50.518Z,98081.65
2019-05-30T20:06:55.888Z,98077.14
2019-05-30T20:17:00.580Z,98090.78
2019-05-30T20:27:05.367Z,98091.79
2019-05-30T20:37:09.680Z,98097.75
2019-05-30T20:47:15.192Z,98112.23
2019-05-30T20:57:20.675Z,98109.09
2019-05-30T21:07:25.265Z,98111.72
2019-05-30T21:17:33.489Z,98114.99
2019-05-30T21:27:38.999Z,98114.50
2019-05-30T21:37:45.724Z,98118.80
2019-05-30T21:47:50.687Z,98128.98
2019-05-30T21:57:55.212Z,98126.89
2019-05-30T22:08:00.160Z,98134.50
2019-05-30T22:18:04.557Z,98150.19
2019-05-30T22:28:09.429Z,98148.21
2019-05-30T22:38:13.780Z,98153.47
2019-05-30T22:48:18.394Z,98164.02
2019-05-30T22:58:23.383Z,98150.30
2019-05-30T23:08:28.897Z,98140.61
2019-05-30T23:18:35.217Z,98138.63
2019-05-30T23:28:39.492Z,98145.53
2019-05-30T23:38:44.281Z,98138.81
2019-05-30T23:48:49.486Z,98130.89
2019-05-30T23:58:54.996Z,98119.37
